Oegstgeest, Netherlands
Current Conditions -  °F | °C
As of 2:25 PM on Wednesday 22 Oct 2014 (Local Time) from EHAM Reporting Station
Rain Showers Rain Showers  
Wind Chill: 55°   Ceiling: Unl
Heat Index: 55°   Visibility: 6mi
Dew Point: 46°   Wind: 22mph
Humidity: 72%   Direction: 310°NW
Pressure: 30.09"   Gusts: NA
Location:  52.18°N, 4.47°E
Report Text: EHAM 221225Z 31019KT 9999 VCSH FEW028CB 13/08 Q1019 TEMPO32020G30KT 7000 -SHRA
Loading
Personal Weather Stations






























Interactive Weather Map
Tropical Storm Tracking
New forecast layout! Learn more

10-Day Weather Forecast

Advertisements
Track Severe Weather on mobile